Time;durP1;ratioP1;P1;durP2;ratioP2;P2;SDS_P1;SDS_P2;PMS_P1;PMS_P2;Temp;Humidity;BMP_temperature;BMP_pressure;BME280_temperature;BME280_humidity;BME280_pressure;Samples;Min_cycle;Max_cycle;Signal;HPM_P1;HPM_P2
2021/04/18 00:01:49;;;;;;;0.60;0.60;;;6.40;99.90;;;;;;5097983;28;20209;-81
2021/04/18 00:04:15;;;;;;;0.60;0.60;;;6.40;99.90;;;;;;5098006;28;20534;-81
2021/04/18 00:06:42;;;;;;;0.60;0.60;;;6.40;99.90;;;;;;5103020;28;20417;-81
2021/04/18 00:09:10;;;;;;;0.60;0.60;;;6.40;99.90;;;;;;5107484;28;20206;-81
2021/04/18 00:11:37;;;;;;;0.50;0.50;;;6.40;99.90;;;;;;5106647;28;20241;-81
2021/04/18 00:14:05;;;;;;;0.50;0.50;;;6.40;99.90;;;;;;5108374;28;20210;-81
2021/04/18 00:16:31;;;;;;;0.60;0.60;;;6.50;99.90;;;;;;5108735;28;20218;-79
2021/04/18 00:18:58;;;;;;;0.50;0.50;;;6.50;99.90;;;;;;5108393;28;20206;-79
2021/04/18 00:21:24;;;;;;;0.52;0.52;;;6.50;99.90;;;;;;5108907;28;20260;-80
2021/04/18 00:23:50;;;;;;;0.60;0.60;;;6.60;99.90;;;;;;5108316;28;20202;-80
2021/04/18 00:26:16;;;;;;;0.60;0.60;;;6.50;99.90;;;;;;5108399;28;20218;-79
2021/04/18 00:28:45;;;;;;;0.60;0.60;;;6.60;99.90;;;;;;5108512;28;20210;-80
2021/04/18 00:31:14;;;;;;;0.60;0.60;;;6.50;99.90;;;;;;5109326;28;20206;-79
2021/04/18 00:33:42;;;;;;;0.60;0.60;;;6.50;99.90;;;;;;5112309;28;20202;-79
2021/04/18 00:36:08;;;;;;;0.60;0.60;;;6.60;99.90;;;;;;5112344;28;20274;-80
2021/04/18 00:38:35;;;;;;;0.60;0.60;;;6.60;99.90;;;;;;5112468;28;20670;-80
2021/04/18 00:41:01;;;;;;;0.60;0.60;;;6.60;99.90;;;;;;5112493;28;20671;-80
2021/04/18 00:43:34;;;;;;;0.60;0.60;;;6.60;99.90;;;;;;5112152;28;20598;-80
2021/04/18 00:46:01;;;;;;;0.60;0.60;;;6.50;99.90;;;;;;5110457;28;20437;-80
2021/04/18 00:48:27;;;;;;;0.60;0.60;;;6.50;99.90;;;;;;5113417;28;20221;-80
2021/04/18 00:50:53;;;;;;;0.60;0.60;;;6.50;99.90;;;;;;5112827;28;20504;-80
2021/04/18 00:53:20;;;;;;;0.60;0.60;;;6.50;99.90;;;;;;5112913;28;20708;-79
2021/04/18 00:55:47;;;;;;;0.60;0.60;;;6.40;99.90;;;;;;5112820;28;20678;-79
2021/04/18 00:58:13;;;;;;;0.60;0.60;;;6.40;99.90;;;;;;5113185;28;20211;-79
2021/04/18 01:00:40;;;;;;;0.50;0.50;;;6.30;99.90;;;;;;5113254;28;20210;-79
2021/04/18 01:03:07;;;;;;;0.60;0.60;;;6.30;99.90;;;;;;5112955;28;20233;-79
2021/04/18 01:05:33;;;;;;;0.60;0.60;;;6.30;99.90;;;;;;5112942;28;20664;-79
2021/04/18 01:08:00;;;;;;;0.60;0.60;;;6.20;99.90;;;;;;5112498;28;20228;-81
2021/04/18 01:10:26;;;;;;;0.60;0.60;;;6.10;99.90;;;;;;5112896;28;20198;-82
2021/04/18 01:12:52;;;;;;;0.50;0.50;;;6.10;99.90;;;;;;5112426;28;20202;-81
2021/04/18 01:15:18;;;;;;;0.50;0.50;;;6.10;99.90;;;;;;5112601;28;20202;-81
2021/04/18 01:17:48;;;;;;;0.60;0.60;;;6.00;99.90;;;;;;5112311;28;20218;-81
2021/04/18 01:20:21;;;;;;;0.60;0.60;;;6.00;99.90;;;;;;5112853;28;20887;-81
2021/04/18 01:22:50;;;;;;;0.60;0.60;;;6.00;99.90;;;;;;5112644;28;20209;-81
2021/04/18 01:25:17;;;;;;;0.60;0.60;;;5.80;99.90;;;;;;5112374;28;20213;-81
2021/04/18 01:27:45;;;;;;;0.60;0.60;;;6.00;99.90;;;;;;5112087;28;20533;-81
2021/04/18 01:30:13;;;;;;;0.60;0.60;;;5.90;99.90;;;;;;5112373;28;20299;-81
2021/04/18 01:32:43;;;;;;;0.60;0.60;;;5.90;99.90;;;;;;5112110;28;20546;-81
2021/04/18 01:35:14;;;;;;;0.60;0.60;;;5.90;99.90;;;;;;5112100;28;20661;-81
2021/04/18 01:37:40;;;;;;;0.57;0.57;;;5.80;99.90;;;;;;5112296;28;20226;-81
2021/04/18 01:40:11;;;;;;;0.60;0.60;;;5.80;99.90;;;;;;5111869;28;20206;-81
2021/04/18 01:42:37;;;;;;;0.60;0.60;;;5.70;99.90;;;;;;5111767;28;20580;-81
2021/04/18 01:45:04;;;;;;;0.60;0.60;;;5.70;99.90;;;;;;5111845;28;20370;-81
2021/04/18 01:47:30;;;;;;;0.60;0.60;;;5.70;99.90;;;;;;5112189;28;20201;-80
2021/04/18 01:49:57;;;;;;;0.60;0.60;;;5.70;99.90;;;;;;5111821;28;20213;-80
2021/04/18 01:52:23;;;;;;;0.60;0.60;;;5.70;99.90;;;;;;5112323;28;20198;-81
2021/04/18 01:54:49;;;;;;;0.60;0.60;;;5.70;99.90;;;;;;5111620;28;20230;-81
2021/04/18 01:57:16;;;;;;;0.60;0.60;;;5.70;99.90;;;;;;5111809;28;20287;-81
2021/04/18 01:59:42;;;;;;;0.50;0.50;;;5.60;99.90;;;;;;5111679;28;20213;-80
2021/04/18 02:02:11;;;;;;;0.60;0.60;;;5.70;99.90;;;;;;5111956;28;20612;-80
2021/04/18 02:04:37;;;;;;;0.50;0.50;;;5.60;99.90;;;;;;5111500;28;20209;-80
2021/04/18 02:07:04;;;;;;;0.50;0.50;;;5.60;99.90;;;;;;5111758;27;20194;-80
2021/04/18 02:09:31;;;;;;;0.60;0.60;;;5.60;99.90;;;;;;5111403;28;20305;-80
2021/04/18 02:11:58;;;;;;;0.60;0.60;;;5.60;99.90;;;;;;5111671;28;20664;-80
2021/04/18 02:14:25;;;;;;;0.60;0.60;;;5.60;99.90;;;;;;5111350;28;20235;-81
2021/04/18 02:16:52;;;;;;;0.60;0.60;;;5.60;99.90;;;;;;5111558;28;20633;-81
2021/04/18 02:19:19;;;;;;;0.60;0.60;;;5.60;99.90;;;;;;5111103;28;20456;-80
2021/04/18 02:21:45;;;;;;;0.60;0.60;;;5.50;99.90;;;;;;5111422;28;20206;-80
2021/04/18 02:24:12;;;;;;;0.60;0.60;;;5.40;99.90;;;;;;5110979;28;20744;-80
2021/04/18 02:26:38;;;;;;;0.50;0.50;;;5.40;99.90;;;;;;5111367;28;20222;-81
2021/04/18 02:29:05;;;;;;;0.50;0.50;;;5.30;99.90;;;;;;5111237;28;20209;-81
2021/04/18 02:31:32;;;;;;;0.55;0.55;;;5.30;99.90;;;;;;5111269;28;20210;-81
2021/04/18 02:33:58;;;;;;;0.60;0.60;;;5.30;99.90;;;;;;5110960;28;20202;-81
2021/04/18 02:36:24;;;;;;;0.60;0.60;;;5.30;99.90;;;;;;5111027;28;20275;-80
2021/04/18 02:38:50;;;;;;;0.57;0.57;;;5.20;99.90;;;;;;5110832;28;20683;-80
2021/04/18 02:41:16;;;;;;;0.60;0.60;;;5.20;99.90;;;;;;5110976;28;20206;-80
2021/04/18 02:43:43;;;;;;;0.60;0.60;;;5.20;99.90;;;;;;5111128;28;20224;-80
2021/04/18 02:46:09;;;;;;;0.60;0.60;;;5.20;99.90;;;;;;5110745;28;20202;-80
2021/04/18 02:48:36;;;;;;;0.60;0.60;;;5.10;99.90;;;;;;5111083;28;20615;-80
2021/04/18 02:51:02;;;;;;;0.55;0.55;;;5.10;99.90;;;;;;5110520;28;20202;-81
2021/04/18 02:53:29;;;;;;;0.60;0.60;;;5.10;99.90;;;;;;5110668;28;20249;-81
2021/04/18 02:55:55;;;;;;;0.60;0.60;;;5.10;99.90;;;;;;5109285;28;20209;-81
2021/04/18 02:58:22;;;;;;;0.60;0.60;;;5.10;99.90;;;;;;5110661;28;20213;-81
2021/04/18 03:00:48;;;;;;;0.60;0.60;;;5.00;99.90;;;;;;5110312;28;20219;-80
2021/04/18 03:03:14;;;;;;;0.60;0.60;;;5.00;99.90;;;;;;5110619;28;20213;-81
2021/04/18 03:05:41;;;;;;;0.60;0.60;;;5.10;99.90;;;;;;5110363;28;20202;-81
2021/04/18 03:08:08;;;;;;;0.50;0.50;;;5.00;99.90;;;;;;5110616;28;20198;-81
2021/04/18 03:10:34;;;;;;;0.60;0.60;;;5.00;99.90;;;;;;5110210;28;20210;-81
2021/04/18 03:13:01;;;;;;;0.50;0.50;;;5.00;99.90;;;;;;5110537;28;20663;-81
2021/04/18 03:15:27;;;;;;;0.60;0.60;;;4.90;99.90;;;;;;5110095;28;20206;-81
2021/04/18 03:17:53;;;;;;;0.60;0.60;;;4.90;99.90;;;;;;5110371;28;20237;-81
2021/04/18 03:20:19;;;;;;;0.60;0.60;;;4.90;99.90;;;;;;5110328;28;20642;-81
2021/04/18 03:22:46;;;;;;;0.60;0.60;;;4.80;99.90;;;;;;5110429;28;20584;-81
2021/04/18 03:25:14;;;;;;;0.50;0.50;;;4.80;99.90;;;;;;5109693;28;20209;-82
2021/04/18 03:27:41;;;;;;;0.55;0.55;;;4.80;99.90;;;;;;5110255;28;20247;-81
2021/04/18 03:30:09;;;;;;;0.60;0.60;;;4.80;99.90;;;;;;5109837;28;20206;-81
2021/04/18 03:32:38;;;;;;;0.60;0.60;;;4.70;99.90;;;;;;5110178;28;20206;-81
2021/04/18 03:35:06;;;;;;;0.60;0.60;;;4.70;99.90;;;;;;5110127;28;20217;-80
2021/04/18 03:37:32;;;;;;;0.50;0.50;;;4.70;99.90;;;;;;5109882;28;20229;-81
2021/04/18 03:39:59;;;;;;;0.60;0.60;;;4.60;99.90;;;;;;5110013;28;20233;-80
2021/04/18 03:42:25;;;;;;;0.60;0.60;;;4.60;99.90;;;;;;5110016;28;20202;-81
2021/04/18 03:44:52;;;;;;;0.60;0.60;;;4.60;99.90;;;;;;5109658;28;20546;-81
2021/04/18 03:47:18;;;;;;;0.60;0.60;;;4.50;99.90;;;;;;5109848;28;20198;-81
2021/04/18 03:49:44;;;;;;;0.60;0.60;;;4.50;99.90;;;;;;5110000;28;20206;-80
2021/04/18 03:52:10;;;;;;;0.60;0.60;;;4.60;99.90;;;;;;5109885;28;20221;-81
2021/04/18 03:54:36;;;;;;;0.50;0.50;;;4.50;99.90;;;;;;5109375;28;20241;-80
2021/04/18 03:57:03;;;;;;;0.60;0.60;;;4.50;99.90;;;;;;5109579;28;20227;-81
2021/04/18 03:59:29;;;;;;;0.50;0.50;;;4.50;99.90;;;;;;5109553;28;20202;-81
2021/04/18 04:01:56;;;;;;;0.60;0.60;;;4.50;99.90;;;;;;5109820;28;20202;-81
2021/04/18 04:04:22;;;;;;;0.50;0.50;;;4.50;99.90;;;;;;5109477;28;20194;-81
2021/04/18 04:06:48;;;;;;;0.60;0.60;;;4.40;99.90;;;;;;5109686;28;20549;-81
2021/04/18 04:09:14;;;;;;;0.60;0.60;;;4.40;99.90;;;;;;5109337;28;20220;-81
2021/04/18 04:11:41;;;;;;;0.60;0.60;;;4.40;99.90;;;;;;5109713;28;20201;-81
2021/04/18 04:14:08;;;;;;;0.60;0.60;;;4.30;99.90;;;;;;5109451;28;20194;-81
2021/04/18 04:16:34;;;;;;;0.60;0.60;;;4.20;99.90;;;;;;5109402;28;20232;-80
2021/04/18 04:19:00;;;;;;;0.60;0.60;;;4.20;99.90;;;;;;5109796;28;20358;-79
2021/04/18 04:21:26;;;;;;;0.60;0.60;;;4.20;99.90;;;;;;5109524;28;20202;-80
2021/04/18 04:23:53;;;;;;;0.60;0.60;;;4.20;99.90;;;;;;5109513;28;20198;-80
2021/04/18 04:26:19;;;;;;;0.50;0.50;;;4.30;99.90;;;;;;5109569;28;20284;-80
2021/04/18 04:28:45;;;;;;;0.60;0.60;;;4.30;99.90;;;;;;5109378;28;20559;-80
2021/04/18 04:31:12;;;;;;;0.60;0.60;;;4.30;99.90;;;;;;5109597;28;20206;-80
2021/04/18 04:33:38;;;;;;;0.60;0.60;;;4.30;99.90;;;;;;5108958;28;20204;-80
2021/04/18 04:36:06;;;;;;;0.60;0.60;;;4.30;99.90;;;;;;5109430;28;20202;-81
2021/04/18 04:38:32;;;;;;;0.60;0.60;;;4.30;99.90;;;;;;5109024;28;20205;-81
2021/04/18 04:40:59;;;;;;;0.60;0.60;;;4.20;99.90;;;;;;5109417;28;20605;-80
2021/04/18 04:43:25;;;;;;;0.60;0.60;;;4.30;99.90;;;;;;5109025;28;20198;-79
2021/04/18 04:45:52;;;;;;;0.50;0.50;;;4.40;99.90;;;;;;5109440;28;20248;-80
2021/04/18 04:48:19;;;;;;;0.60;0.60;;;4.30;99.90;;;;;;5109188;28;20509;-79
2021/04/18 04:50:45;;;;;;;0.60;0.60;;;4.30;99.90;;;;;;5109476;28;20198;-80
2021/04/18 04:53:13;;;;;;;0.50;0.50;;;4.40;99.90;;;;;;5108713;28;20234;-80
2021/04/18 04:55:41;;;;;;;0.50;0.50;;;4.40;99.90;;;;;;5109223;28;20206;-80
2021/04/18 04:58:07;;;;;;;0.60;0.60;;;4.40;99.90;;;;;;5108834;28;20268;-80
2021/04/18 05:00:33;;;;;;;0.60;0.60;;;4.40;99.90;;;;;;5109146;28;20210;-80
2021/04/18 05:03:01;;;;;;;0.60;0.60;;;4.30;99.90;;;;;;5108796;28;20707;-81
2021/04/18 05:05:30;;;;;;;0.60;0.60;;;4.40;99.90;;;;;;5109425;28;20619;-80
2021/04/18 05:07:56;;;;;;;0.52;0.52;;;4.50;99.90;;;;;;5109324;28;20209;-80
2021/04/18 05:10:23;;;;;;;0.60;0.60;;;4.40;99.90;;;;;;5108890;28;20663;-80
2021/04/18 05:12:49;;;;;;;0.60;0.60;;;4.50;99.90;;;;;;5109109;28;20217;-81
2021/04/18 05:15:15;;;;;;;0.60;0.60;;;4.60;99.90;;;;;;5109522;28;20198;-80
2021/04/18 05:17:42;;;;;;;0.60;0.60;;;5.00;99.90;;;;;;5108583;28;20229;-80
2021/04/18 05:20:09;;;;;;;0.60;0.60;;;5.50;99.90;;;;;;5112746;28;20202;-80
2021/04/18 05:22:38;;;;;;;0.50;0.50;;;6.20;99.90;;;;;;5112221;28;20229;-80
2021/04/18 05:25:04;;;;;;;0.60;0.60;;;6.50;99.90;;;;;;5112554;27;20255;-81
2021/04/18 05:27:31;;;;;;;0.60;0.60;;;6.70;99.90;;;;;;5112346;28;20222;-80
2021/04/18 05:29:57;;;;;;;0.60;0.60;;;6.90;99.90;;;;;;5112544;28;20213;-80
2021/04/18 05:32:23;;;;;;;0.60;0.60;;;7.10;99.90;;;;;;5111984;28;20198;-81
2021/04/18 05:34:49;;;;;;;0.60;0.60;;;7.30;99.90;;;;;;5112499;28;20206;-81
2021/04/18 05:37:15;;;;;;;0.57;0.57;;;7.30;99.90;;;;;;5111881;28;20222;-81
2021/04/18 05:39:42;;;;;;;0.60;0.60;;;7.60;99.90;;;;;;5112460;28;20222;-81
2021/04/18 05:42:09;;;;;;;0.57;0.57;;;8.10;99.90;;;;;;5111836;28;20202;-81
2021/04/18 05:44:36;;;;;;;0.60;0.60;;;8.10;99.90;;;;;;5112373;28;20535;-81
2021/04/18 05:47:05;;;;;;;0.60;0.60;;;7.60;99.90;;;;;;5112029;28;20248;-81
2021/04/18 05:49:31;;;;;;;0.60;0.60;;;7.40;99.90;;;;;;5112257;28;20739;-81
2021/04/18 05:51:57;;;;;;;0.60;0.60;;;7.80;99.90;;;;;;5111794;28;20206;-81
2021/04/18 05:54:23;;;;;;;0.60;0.60;;;6.90;99.90;;;;;;5111871;28;20238;-80
2021/04/18 05:56:50;;;;;;;0.60;0.60;;;6.20;99.90;;;;;;5111595;28;20226;-81
2021/04/18 05:59:16;;;;;;;0.60;0.60;;;6.50;99.90;;;;;;5111908;28;20203;-81
2021/04/18 06:01:43;;;;;;;0.60;0.60;;;6.20;99.90;;;;;;5111965;28;20279;-81
2021/04/18 06:04:09;;;;;;;0.60;0.60;;;6.30;99.90;;;;;;5111805;28;20688;-81
2021/04/18 06:06:35;;;;;;;0.60;0.60;;;6.50;99.90;;;;;;5111600;28;20221;-81
2021/04/18 06:09:02;;;;;;;0.57;0.57;;;6.70;99.90;;;;;;5111743;28;20202;-81
2021/04/18 06:11:29;;;;;;;0.60;0.60;;;6.10;99.90;;;;;;5111557;28;20210;-81
2021/04/18 06:13:55;;;;;;;0.60;0.60;;;5.70;99.90;;;;;;5111645;28;20198;-80
2021/04/18 06:16:22;;;;;;;0.50;0.50;;;5.70;99.90;;;;;;5111583;28;20229;-80
2021/04/18 06:18:48;;;;;;;0.60;0.60;;;5.90;99.90;;;;;;5111665;28;20206;-80
2021/04/18 06:21:14;;;;;;;0.60;0.60;;;5.90;99.90;;;;;;5111333;28;20206;-80
2021/04/18 06:23:44;;;;;;;0.60;0.60;;;6.40;99.90;;;;;;5111368;27;20206;-80
2021/04/18 06:26:10;;;;;;;0.57;0.57;;;6.40;99.90;;;;;;5110856;28;20249;-80
2021/04/18 06:28:36;;;;;;;0.60;0.60;;;6.60;99.90;;;;;;5111295;28;20210;-80
2021/04/18 06:31:04;;;;;;;0.60;0.60;;;6.50;99.90;;;;;;5111226;28;20213;-80
2021/04/18 06:33:30;;;;;;;0.55;0.55;;;6.60;99.90;;;;;;5111055;28;20580;-80
2021/04/18 06:35:56;;;;;;;0.60;0.60;;;6.70;99.90;;;;;;5110980;28;20215;-80
2021/04/18 06:38:22;;;;;;;0.55;0.55;;;6.80;99.90;;;;;;5111071;28;20612;-80
2021/04/18 06:40:54;;;;;;;0.60;0.60;;;6.70;99.90;;;;;;5111173;28;20206;-81
2021/04/18 06:43:22;;;;;;;0.60;0.60;;;7.70;99.90;;;;;;5111147;28;20197;-80
2021/04/18 06:45:50;;;;;;;0.60;0.60;;;6.80;99.90;;;;;;5110652;28;20206;-80
2021/04/18 06:48:18;;;;;;;0.60;0.60;;;6.40;99.90;;;;;;5110925;28;20202;-80
2021/04/18 06:50:45;;;;;;;0.50;0.50;;;6.60;99.90;;;;;;5110838;28;20206;-80
2021/04/18 06:53:11;;;;;;;0.50;0.50;;;6.90;99.90;;;;;;5110857;28;20242;-81
2021/04/18 06:55:37;;;;;;;0.60;0.60;;;6.80;99.90;;;;;;5110375;28;20661;-80
2021/04/18 06:58:03;;;;;;;0.50;0.50;;;7.00;99.90;;;;;;5110652;28;20700;-80
2021/04/18 07:00:30;;;;;;;0.60;0.60;;;7.10;99.90;;;;;;5110399;28;20222;-81
2021/04/18 07:03:10;;;;;;;0.60;0.60;;;7.30;99.90;;;;;;5110742;28;20656;-81
2021/04/18 07:05:46;;;;;;;0.60;0.60;;;7.40;99.90;;;;;;5110447;28;20559;-81
2021/04/18 07:08:20;;;;;;;0.60;0.60;;;7.40;99.90;;;;;;5110292;28;20194;-81
2021/04/18 07:10:46;;;;;;;0.60;0.60;;;7.40;99.90;;;;;;5110314;28;20551;-81
2021/04/18 07:13:16;;;;;;;0.60;0.60;;;7.40;99.90;;;;;;5110714;28;20209;-81
2021/04/18 07:15:43;;;;;;;0.60;0.60;;;7.30;99.90;;;;;;5110009;28;20225;-80
2021/04/18 07:18:13;;;;;;;0.60;0.60;;;7.40;99.90;;;;;;5110094;28;20316;-81
2021/04/18 07:20:52;;;;;;;0.57;0.57;;;7.50;99.90;;;;;;5109999;28;20205;-80
2021/04/18 07:23:29;;;;;;;0.57;0.57;;;7.60;99.90;;;;;;5110433;28;20438;-80
2021/04/18 07:25:58;;;;;;;0.60;0.60;;;7.40;99.90;;;;;;5110344;28;20367;-80
2021/04/18 07:28:26;;;;;;;0.60;0.60;;;7.40;99.90;;;;;;5110254;28;20233;-81
2021/04/18 07:31:02;;;;;;;0.50;0.50;;;7.50;99.90;;;;;;5110158;28;20660;-81
2021/04/18 07:33:28;;;;;;;0.60;0.60;;;7.60;99.90;;;;;;5109964;28;20205;-81
2021/04/18 07:35:58;;;;;;;0.50;0.50;;;7.50;99.90;;;;;;5110265;28;20202;-81
2021/04/18 07:38:27;;;;;;;0.60;0.60;;;7.80;99.90;;;;;;5110216;27;20255;-82
2021/04/18 07:41:00;;;;;;;0.60;0.60;;;7.90;99.90;;;;;;5109452;28;20237;-83
2021/04/18 07:43:32;;;;;;;0.60;0.60;;;8.00;99.90;;;;;;5110109;28;20209;-82
2021/04/18 07:46:05;;;;;;;0.60;0.60;;;8.00;99.90;;;;;;5110054;28;20224;-81
2021/04/18 07:48:31;;;;;;;0.57;0.57;;;8.00;99.90;;;;;;5109868;28;20208;-81
2021/04/18 07:50:58;;;;;;;0.60;0.60;;;8.10;99.90;;;;;;5109762;28;20202;-79
2021/04/18 07:53:30;;;;;;;0.60;0.60;;;8.20;99.90;;;;;;5109617;28;20286;-79
2021/04/18 07:56:01;;;;;;;0.50;0.50;;;8.10;99.90;;;;;;5109531;28;20202;-83
2021/04/18 07:58:29;;;;;;;0.60;0.60;;;8.20;99.90;;;;;;5109400;28;20267;-81
2021/04/18 08:00:56;;;;;;;0.60;0.60;;;10.10;99.90;;;;;;5109757;28;20206;-80
2021/04/18 08:03:22;;;;;;;0.57;0.57;;;10.00;99.90;;;;;;5109425;28;20206;-81
2021/04/18 08:05:52;;;;;;;0.60;0.60;;;8.40;99.90;;;;;;5109662;28;20384;-81
2021/04/18 08:08:21;;;;;;;0.60;0.60;;;8.40;99.90;;;;;;5109491;28;20637;-82
2021/04/18 08:10:48;;;;;;;0.50;0.50;;;8.40;99.90;;;;;;5109686;28;20293;-80
2021/04/18 08:13:16;;;;;;;0.60;0.60;;;8.70;99.90;;;;;;5109696;28;20217;-80
2021/04/18 08:16:02;;;;;;;0.50;0.50;;;8.60;99.90;;;;;;5111304;28;20225;-80
2021/04/18 08:18:30;;;;;;;0.60;0.60;;;8.60;99.90;;;;;;5109751;28;20271;-85
2021/04/18 08:20:57;;;;;;;0.52;0.52;;;8.80;99.90;;;;;;5100422;28;20191;-82
2021/04/18 08:23:34;;;;;;;0.60;0.60;;;8.90;99.90;;;;;;5094880;28;20202;-83
2021/04/18 08:26:07;;;;;;;0.60;0.60;;;8.80;99.90;;;;;;5089354;28;20287;-85
2021/04/18 08:29:05;;;;;;;0.57;0.57;;;9.00;99.90;;;;;;5089459;28;20199;-84
2021/04/18 08:31:33;;;;;;;0.60;0.60;;;9.40;99.90;;;;;;5089852;28;20210;-80
2021/04/18 08:34:01;;;;;;;0.60;0.60;;;9.50;99.90;;;;;;5097009;28;20210;-80
2021/04/18 08:36:30;;;;;;;0.60;0.60;;;9.50;99.90;;;;;;5102299;28;20194;-80
2021/04/18 08:39:25;;;;;;;0.60;0.60;;;9.40;99.90;;;;;;5109576;28;20267;-80
2021/04/18 08:41:55;;;;;;;0.60;0.60;;;9.20;99.90;;;;;;5109903;28;20259;-80
2021/04/18 08:44:24;;;;;;;0.60;0.60;;;9.40;99.90;;;;;;5110191;28;20214;-80
2021/04/18 08:46:52;;;;;;;0.60;0.60;;;9.40;99.90;;;;;;5109519;28;20198;-80
2021/04/18 08:49:33;;;;;;;0.60;0.60;;;9.30;99.90;;;;;;5109952;28;20210;-80
2021/04/18 08:52:02;;;;;;;0.52;0.52;;;9.30;99.90;;;;;;5109718;28;20206;-79
2021/04/18 08:54:32;;;;;;;0.60;0.60;;;9.50;99.90;;;;;;5092176;28;20234;-78
2021/04/18 08:57:00;;;;;;;0.60;0.60;;;9.70;99.90;;;;;;5093223;28;20222;-79
2021/04/18 08:59:27;;;;;;;0.60;0.60;;;9.60;99.90;;;;;;5092488;28;20720;-79
2021/04/18 09:02:03;;;;;;;0.60;0.60;;;9.80;99.90;;;;;;5092607;28;20209;-80
2021/04/18 09:04:32;;;;;;;0.60;0.60;;;9.80;99.90;;;;;;5092979;28;20669;-80
2021/04/18 09:07:01;;;;;;;0.60;0.60;;;9.90;99.90;;;;;;5092819;28;20199;-79
2021/04/18 09:09:29;;;;;;;0.55;0.55;;;10.00;99.90;;;;;;5092356;28;20502;-79
2021/04/18 09:11:56;;;;;;;0.60;0.60;;;9.90;99.90;;;;;;5092706;28;20558;-80
2021/04/18 09:14:28;;;;;;;0.60;0.60;;;10.10;99.90;;;;;;5092523;28;20215;-80
2021/04/18 09:17:09;;;;;;;0.60;0.60;;;10.30;99.90;;;;;;5092234;28;20269;-80
2021/04/18 09:19:35;;;;;;;0.60;0.60;;;10.20;99.90;;;;;;5092187;28;20203;-80
2021/04/18 09:22:06;;;;;;;0.60;0.60;;;10.20;99.90;;;;;;5092527;28;20602;-80
2021/04/18 09:24:38;;;;;;;0.60;0.60;;;10.70;99.90;;;;;;5092654;28;20199;-79
2021/04/18 09:27:10;;;;;;;0.60;0.60;;;10.60;99.90;;;;;;5112066;28;20221;-80
2021/04/18 09:29:43;;;;;;;0.60;0.60;;;10.70;99.90;;;;;;5112513;28;20206;-79
2021/04/18 09:32:12;;;;;;;0.60;0.60;;;10.70;99.90;;;;;;5074741;28;20620;-80
2021/04/18 09:34:40;;;;;;;0.60;0.60;;;10.80;99.90;;;;;;5099250;28;20198;-81
2021/04/18 09:37:09;;;;;;;0.57;0.57;;;10.80;99.90;;;;;;5097470;28;20222;-80
2021/04/18 09:39:37;;;;;;;0.60;0.60;;;11.20;99.90;;;;;;5100277;28;20207;-81
2021/04/18 09:42:06;;;;;;;0.60;0.60;;;10.60;99.90;;;;;;5096188;28;20210;-81
2021/04/18 09:44:37;;;;;;;0.60;0.60;;;10.50;99.90;;;;;;5097633;28;20204;-80
2021/04/18 09:47:06;;;;;;;0.60;0.60;;;10.80;99.90;;;;;;5100919;28;20240;-80
2021/04/18 09:49:52;;;;;;;0.60;0.60;;;11.00;99.90;;;;;;5102032;28;20682;-81
2021/04/18 09:52:36;;;;;;;0.60;0.60;;;11.30;99.90;;;;;;5101482;28;20206;-80
2021/04/18 09:55:13;;;;;;;0.60;0.60;;;11.00;99.90;;;;;;5103829;28;20256;-80
2021/04/18 09:57:43;;;;;;;0.60;0.60;;;11.20;99.90;;;;;;5095160;28;20271;-82
2021/04/18 10:00:15;;;;;;;0.57;0.57;;;11.00;99.90;;;;;;5093760;28;20261;-80
2021/04/18 10:02:41;;;;;;;0.55;0.55;;;11.00;99.90;;;;;;5091757;28;20214;-81
2021/04/18 10:05:14;;;;;;;0.60;0.60;;;11.40;99.90;;;;;;5100765;28;20198;-79
2021/04/18 10:07:44;;;;;;;0.60;0.60;;;11.20;99.90;;;;;;5106088;28;20696;-79
2021/04/18 10:10:12;;;;;;;0.60;0.60;;;11.40;99.90;;;;;;5094560;28;20202;-79
2021/04/18 10:12:51;;;;;;;0.60;0.60;;;11.40;99.90;;;;;;5106836;28;20418;-80
2021/04/18 10:15:19;;;;;;;0.60;0.60;;;11.80;99.90;;;;;;5101876;28;20203;-80
2021/04/18 10:17:45;;;;;;;0.60;0.60;;;11.80;99.90;;;;;;5105852;28;20229;-78
2021/04/18 10:20:21;;;;;;;0.60;0.60;;;11.70;99.90;;;;;;5105406;28;20205;-80
2021/04/18 10:23:02;;;;;;;0.60;0.60;;;11.80;99.90;;;;;;5096335;28;20204;-81
2021/04/18 10:25:29;;;;;;;0.60;0.60;;;11.90;99.90;;;;;;5106462;28;20271;-84
2021/04/18 10:27:56;;;;;;;0.60;0.60;;;12.10;99.90;;;;;;5097185;28;20756;-81
2021/04/18 10:30:23;;;;;;;0.60;0.60;;;12.00;99.90;;;;;;5098630;28;20207;-80
2021/04/18 10:32:49;;;;;;;0.60;0.60;;;12.00;99.90;;;;;;5095878;28;20202;-80
2021/04/18 10:35:16;;;;;;;0.60;0.60;;;11.90;99.90;;;;;;5099405;28;20213;-80
2021/04/18 10:37:42;;;;;;;0.60;0.60;;;11.90;99.90;;;;;;5098009;28;20554;-80
2021/04/18 10:40:09;;;;;;;0.60;0.60;;;12.10;99.90;;;;;;5097650;28;20217;-80
2021/04/18 10:42:36;;;;;;;0.60;0.60;;;12.10;99.90;;;;;;5096307;28;20202;-80
2021/04/18 10:45:03;;;;;;;0.60;0.60;;;11.90;99.90;;;;;;5110415;28;20602;-82
2021/04/18 10:47:29;;;;;;;0.60;0.60;;;12.40;99.90;;;;;;5109793;28;20198;-80
2021/04/18 10:49:59;;;;;;;0.60;0.60;;;12.40;99.90;;;;;;5110555;28;20308;-79
2021/04/18 10:52:39;;;;;;;0.60;0.60;;;12.50;99.90;;;;;;5110894;28;20206;-80
2021/04/18 10:55:12;;;;;;;0.60;0.60;;;11.40;99.90;;;;;;5110517;28;20230;-79
2021/04/18 10:57:41;;;;;;;0.60;0.60;;;12.40;99.90;;;;;;5110400;28;20226;-79
2021/04/18 11:00:12;;;;;;;0.60;0.60;;;12.20;99.90;;;;;;5110546;28;20202;-84
2021/04/18 11:02:41;;;;;;;0.60;0.60;;;11.90;99.90;;;;;;5106610;28;20206;-82
2021/04/18 11:05:09;;;;;;;0.60;0.60;;;12.70;99.90;;;;;;5099176;28;20726;-77
2021/04/18 11:07:40;;;;;;;0.50;0.50;;;13.10;99.90;;;;;;5100491;28;20202;-79
2021/04/18 11:10:07;;;;;;;0.60;0.60;;;12.80;99.90;;;;;;5099722;28;20198;-78
2021/04/18 11:12:34;;;;;;;0.60;0.60;;;13.00;99.90;;;;;;5100447;28;20268;-86
2021/04/18 11:15:01;;;;;;;0.60;0.60;;;12.90;99.90;;;;;;5098143;28;20219;-81
2021/04/18 11:17:27;;;;;;;0.60;0.60;;;12.80;99.90;;;;;;5098713;28;20218;-85
2021/04/18 11:19:53;;;;;;;0.50;0.50;;;12.80;99.90;;;;;;5099500;28;20195;-81
2021/04/18 11:22:20;;;;;;;0.60;0.60;;;12.80;99.90;;;;;;5098071;28;20213;-81
2021/04/18 11:24:46;;;;;;;0.60;0.60;;;12.50;99.90;;;;;;5100107;28;20201;-82
2021/04/18 11:27:13;;;;;;;0.60;0.60;;;12.80;99.90;;;;;;5092488;28;20281;-81
2021/04/18 11:29:40;;;;;;;0.60;0.60;;;12.90;99.90;;;;;;5089756;28;20203;-82
2021/04/18 11:32:07;;;;;;;0.50;0.50;;;12.50;99.90;;;;;;5106422;28;20206;-82
2021/04/18 11:34:33;;;;;;;0.60;0.60;;;12.30;99.90;;;;;;5092455;28;20683;-82
2021/04/18 11:36:59;;;;;;;0.50;0.50;;;12.30;99.90;;;;;;5096904;28;20213;-83
2021/04/18 11:39:26;;;;;;;0.60;0.60;;;12.40;99.90;;;;;;5098151;28;20202;-83
2021/04/18 11:41:52;;;;;;;0.60;0.60;;;12.30;99.90;;;;;;5099676;28;20255;-83
2021/04/18 11:44:18;;;;;;;0.60;0.60;;;12.30;99.90;;;;;;5099156;28;20203;-84
2021/04/18 11:46:47;;;;;;;0.60;0.60;;;12.50;99.90;;;;;;5097274;28;20201;-81
2021/04/18 11:49:15;;;;;;;0.60;0.60;;;12.40;99.90;;;;;;5097728;28;20211;-82
2021/04/18 11:51:42;;;;;;;0.60;0.60;;;12.50;99.90;;;;;;5097199;28;20253;-83
2021/04/18 11:54:08;;;;;;;0.60;0.60;;;12.90;99.90;;;;;;5109091;28;20452;-84
2021/04/18 11:56:35;;;;;;;0.60;0.60;;;13.10;99.90;;;;;;5101682;28;20199;-83
2021/04/18 11:59:02;;;;;;;0.57;0.57;;;13.60;99.90;;;;;;5102952;28;20222;-83
2021/04/18 12:01:28;;;;;;;0.60;0.60;;;14.10;99.90;;;;;;5105384;28;20214;-83
2021/04/18 12:03:54;;;;;;;0.60;0.60;;;14.50;99.90;;;;;;5109882;28;20568;-83
2021/04/18 12:06:21;;;;;;;0.57;0.57;;;14.30;99.90;;;;;;5102636;28;20644;-83
2021/04/18 12:08:50;;;;;;;0.60;0.60;;;13.80;99.90;;;;;;5096271;28;20202;-83
2021/04/18 12:11:17;;;;;;;0.60;0.60;;;13.40;99.90;;;;;;5098795;28;20210;-83
2021/04/18 12:13:45;;;;;;;0.60;0.60;;;13.70;99.90;;;;;;5092427;28;20202;-87
2021/04/18 12:16:15;;;;;;;0.50;0.50;;;13.90;99.90;;;;;;5104967;28;20221;-86
2021/04/18 12:18:44;;;;;;;0.60;0.60;;;13.80;99.90;;;;;;5106518;28;20223;-89
2021/04/18 12:21:13;;;;;;;0.60;0.60;;;14.00;99.90;;;;;;5085638;28;20214;-83
2021/04/18 12:23:40;;;;;;;0.60;0.60;;;13.70;99.90;;;;;;5109024;28;20198;-82
2021/04/18 12:26:06;;;;;;;0.55;0.55;;;14.00;99.90;;;;;;5109717;28;20226;-85
2021/04/18 12:28:34;;;;;;;0.60;0.60;;;14.10;99.90;;;;;;5111179;28;20206;-85
2021/04/18 12:31:00;;;;;;;0.57;0.57;;;14.30;99.90;;;;;;5112524;28;20202;-83
2021/04/18 12:33:27;;;;;;;0.60;0.60;;;13.90;99.90;;;;;;5110784;28;20576;-84
2021/04/18 12:35:53;;;;;;;0.50;0.50;;;14.00;99.90;;;;;;5118604;28;20233;-85
2021/04/18 12:38:20;;;;;;;0.55;0.55;;;14.20;99.90;;;;;;5114324;28;20234;-85
2021/04/18 12:40:47;;;;;;;0.50;0.50;;;14.30;99.90;;;;;;5120398;28;20232;-85
2021/04/18 12:43:13;;;;;;;0.60;0.60;;;14.40;99.90;;;;;;5124348;28;20208;-84
2021/04/18 12:45:40;;;;;;;0.60;0.60;;;14.40;99.90;;;;;;5120097;28;20329;-83
2021/04/18 12:48:08;;;;;;;0.60;0.60;;;13.80;99.90;;;;;;5120315;28;20202;-84
2021/04/18 12:50:34;;;;;;;0.60;0.60;;;14.00;99.90;;;;;;5118140;28;20198;-86
2021/04/18 12:53:01;;;;;;;0.50;0.50;;;14.20;99.90;;;;;;5114170;28;20690;-84
2021/04/18 12:55:27;;;;;;;0.60;0.60;;;14.30;99.90;;;;;;5113786;28;20234;-83
2021/04/18 12:57:54;;;;;;;0.50;0.50;;;14.00;99.90;;;;;;5112875;28;20333;-83